Santiago, Chile

2:49 AM CLST on October 23, 2014 (GMT -0300)
Pudahuel Bezanilla Solar | Change Station
CLOSE
Current Station
Personal Weather Station
Location: Santiago, REGIóN METROPOLITANA DE SANTIAGO
Elevation: 1535 ft
Nearby Weather Stations

Elev 1535 ft 33.43 °S, 70.82 °W | Updated 2 seconds ago

Clear
Clear
58.1 °F
Feels Like 58.1 °F
N
0.0
Wind Variable Wind from NE
Gusts 0.0 mph

Today
High -- | Low -- °F
--% Chance of Precip.
Yesterday
High -- | Low -- °F
Precip. -- in
6:52 AM 8:02 PM
Waning Crescent, 0% visible
Pressure 29.98 in
Visibility -9999.0 miles
Clouds
Dew Point 56 °F
Humidity 94%
Rainfall 0.00 in
Snow Depth Not available.
UV 0.0 out of 12
Pollen Not available.
Air Quality Not available.
Flu Activity Not available.
METAR SCEL 230500Z VRB02KT CAVOK 18/11 Q1015 NOSIG

More Conditions Fewer Conditions

Pressure 29.98 in
Visibility -9999.0 miles
Clouds
Dew Point 56 °F
Humidity 94%
Rainfall 0.00 in
Snow Depth Not available.
UV 0.0 out of 12
Pollen Not available.
Air Quality Not available.
Flu Activity Not available.
METAR SCEL 230500Z VRB02KT CAVOK 18/11 Q1015 NOSIG

More Conditions Fewer Conditions

10-Day Weather Forecast

Almanac

Astronomy

Oct. 23, 2014 Rise Set
Actual Time 6:52 AM CLST 8:02 PM CLST
Civil Twilight 6:26 AM CLST 8:28 PM CLST
Nautical Twilight 5:56 AM CLST 8:59 PM CLST
Astronomical Twilight 5:24 AM CLST 9:31 PM CLST
Moon 6:42 AM CLST 7:59 PM CLST
Length Of Visible Light 14h 01m
Length of Day
13h 09m
Tomorrow will be 1m 57s longer.
Waning Crescent, 0% of the Moon is Illuminated
Today
Waning Crescent
Oct 23
New
Oct 30
First Quarter
Nov 6
Full
Nov 14
Last Quarter

Yesterday's Extremes

Country Highs Country Lows

Community

WunderPhotos

Upload Photos

1,764,188 photos uploaded!

Nearby

Snow Depth

Not available.

Earthquake Activity

City Distance Mag. Time & Date
No recent earthquake activity has been reported nearby.
Minimum magnitude displayed is 2.5.

Coastal Water Temperatures

Place Temperature
No Stations Reporting

Nearby Weather Stations